createdAt,value
2023-05-05T00:02:24.577Z,99179.94
2023-05-05T00:06:28.492Z,99176.78
2023-05-05T00:10:32.891Z,99179.28
2023-05-05T00:14:35.658Z,99176.22
2023-05-05T00:18:38.380Z,99180.13
2023-05-05T00:22:41.094Z,99181.47
2023-05-05T00:26:45.194Z,99183.66
2023-05-05T00:30:47.910Z,99180.34
2023-05-05T00:34:50.988Z,99176.94
2023-05-05T00:38:54.066Z,99176.41
2023-05-05T00:42:59.519Z,99184.16
2023-05-05T00:47:02.263Z,99184.97
2023-05-05T00:51:08.781Z,99176.47
2023-05-05T00:55:11.418Z,99176.38
2023-05-05T00:59:15.650Z,99176.06
2023-05-05T01:03:18.563Z,99173.97
2023-05-05T01:07:28.693Z,99179.50
2023-05-05T01:11:33.691Z,99172.06
2023-05-05T01:15:43.443Z,99176.94
2023-05-05T01:19:56.949Z,99172.69
2023-05-05T01:24:28.750Z,99176.84
2023-05-05T01:28:56.027Z,99186.06
2023-05-05T01:33:03.528Z,99183.09
2023-05-05T01:37:09.723Z,99189.16
2023-05-05T01:41:18.741Z,99182.75
2023-05-05T01:45:23.205Z,99184.94
2023-05-05T01:49:27.721Z,99185.47
2023-05-05T01:53:30.734Z,99192.94
2023-05-05T01:57:34.326Z,99189.94
2023-05-05T02:01:40.853Z,99194.00
2023-05-05T02:05:45.796Z,99197.63
2023-05-05T02:09:49.448Z,99198.03
2023-05-05T02:13:52.379Z,99204.59
2023-05-05T02:17:55.467Z,99201.47
2023-05-05T02:21:59.565Z,99210.34
2023-05-05T02:26:06.161Z,99215.72
2023-05-05T02:30:11.222Z,99209.19
2023-05-05T02:34:15.014Z,99207.56
2023-05-05T02:38:18.948Z,99209.94
2023-05-05T02:42:23.484Z,99210.25
2023-05-05T02:46:26.839Z,99221.84
2023-05-05T02:50:29.542Z,99213.06
2023-05-05T02:54:34.300Z,99213.53
2023-05-05T02:58:43.882Z,99210.03
2023-05-05T03:02:53.064Z,99213.34
2023-05-05T03:06:59.722Z,99217.19
2023-05-05T03:11:07.234Z,99213.47
2023-05-05T03:15:11.108Z,99214.50
2023-05-05T03:19:15.642Z,99213.31
2023-05-05T03:23:20.996Z,99213.47
2023-05-05T03:27:25.186Z,99215.34
2023-05-05T03:31:28.496Z,99204.06
2023-05-05T03:35:31.311Z,99209.13
2023-05-05T03:39:34.008Z,99226.56
2023-05-05T03:43:39.373Z,99221.91
2023-05-05T03:47:42.097Z,99220.03
2023-05-05T03:51:44.897Z,99224.47
2023-05-05T03:55:47.817Z,99224.44
2023-05-05T03:59:52.292Z,99233.97
2023-05-05T04:03:55.169Z,99226.88
2023-05-05T04:07:58.765Z,99236.09
2023-05-05T04:12:01.550Z,99231.81
2023-05-05T04:16:06.128Z,99234.72
2023-05-05T04:20:09.900Z,99222.81
2023-05-05T04:24:12.878Z,99229.06
2023-05-05T04:28:15.847Z,99233.28
2023-05-05T04:32:20.231Z,99236.81
2023-05-05T04:36:22.963Z,99241.44
2023-05-05T04:40:26.218Z,99237.94
2023-05-05T04:44:28.920Z,99239.75
2023-05-05T04:48:34.283Z,99245.31
2023-05-05T04:52:37.664Z,99245.47
2023-05-05T04:56:40.860Z,99240.53
2023-05-05T05:00:43.586Z,99242.44
2023-05-05T05:04:47.899Z,99244.44
2023-05-05T05:08:50.589Z,99242.00
2023-05-05T05:12:53.357Z,99248.81
2023-05-05T05:16:56.204Z,99251.81
2023-05-05T05:21:00.266Z,99254.28
2023-05-05T05:25:02.969Z,99259.38
2023-05-05T05:29:05.953Z,99271.13
2023-05-05T05:33:08.834Z,99269.16
2023-05-05T05:37:12.965Z,99276.72
2023-05-05T05:41:15.740Z,99279.94
2023-05-05T05:45:18.784Z,99286.59
2023-05-05T05:49:21.561Z,99286.78
2023-05-05T05:53:25.665Z,99293.78
2023-05-05T05:57:28.613Z,99287.97
2023-05-05T06:01:31.252Z,99287.34
2023-05-05T06:05:33.887Z,99294.28
2023-05-05T06:09:38.328Z,99291.63
2023-05-05T06:13:41.955Z,99295.31
2023-05-05T06:17:44.926Z,99290.53
2023-05-05T06:21:47.678Z,99298.00
2023-05-05T06:25:53.086Z,99295.03
2023-05-05T06:29:55.871Z,99300.88
2023-05-05T06:33:58.933Z,99303.53
2023-05-05T06:38:01.730Z,99299.81
2023-05-05T06:42:05.914Z,99295.81
2023-05-05T06:46:08.604Z,99294.72
2023-05-05T06:50:12.246Z,99300.75
2023-05-05T06:54:15.192Z,99304.59
2023-05-05T06:58:19.377Z,99306.59
2023-05-05T07:02:23.504Z,99305.75
2023-05-05T07:06:27.662Z,99305.91
2023-05-05T07:10:31.549Z,99298.91
2023-05-05T07:14:35.838Z,99301.00
2023-05-05T07:18:38.554Z,99309.72
2023-05-05T07:22:41.663Z,99315.81
2023-05-05T07:26:44.661Z,99307.66
2023-05-05T07:30:49.350Z,99309.25
2023-05-05T07:34:51.962Z,99305.81
2023-05-05T07:38:55.157Z,99308.78
2023-05-05T07:42:57.952Z,99298.88
2023-05-05T07:47:02.963Z,99293.34
2023-05-05T07:51:05.742Z,99297.31
2023-05-05T07:55:08.829Z,99295.47
2023-05-05T07:59:11.979Z,99301.31
2023-05-05T08:03:16.210Z,99285.41
2023-05-05T08:07:19.042Z,99289.66
2023-05-05T08:11:21.806Z,99280.59
2023-05-05T08:15:24.498Z,99286.09
2023-05-05T08:19:29.682Z,99284.25
2023-05-05T08:23:32.468Z,99286.25
2023-05-05T08:27:35.706Z,99287.28
2023-05-05T08:31:38.493Z,99289.19
2023-05-05T08:35:42.951Z,99288.56
2023-05-05T08:39:45.691Z,99297.78
2023-05-05T08:43:49.285Z,99296.25
2023-05-05T08:47:52.304Z,99299.19
2023-05-05T08:51:58.056Z,99302.09
2023-05-05T08:56:02.017Z,99295.88
2023-05-05T09:00:05.361Z,99296.56
2023-05-05T09:04:09.503Z,99301.50
2023-05-05T09:08:13.706Z,99294.94
2023-05-05T09:12:18.762Z,99303.38
2023-05-05T09:16:22.570Z,99298.91
2023-05-05T09:20:25.826Z,99283.16
2023-05-05T09:24:30.010Z,99306.56
2023-05-05T09:28:32.764Z,99312.94
2023-05-05T09:32:49.023Z,99307.97
2023-05-05T09:36:51.815Z,99298.34
2023-05-05T09:40:55.964Z,99293.25
2023-05-05T09:44:59.980Z,99299.50
2023-05-05T09:49:23.458Z,99282.50
2023-05-05T09:53:27.080Z,99275.97
2023-05-05T09:57:33.464Z,99275.44
2023-05-05T10:01:36.291Z,99292.97
2023-05-05T10:05:50.529Z,99278.69
2023-05-05T10:09:53.595Z,99290.63
2023-05-05T10:13:58.441Z,99291.84
2023-05-05T10:18:07.659Z,99301.81
2023-05-05T10:22:11.384Z,99298.34
2023-05-05T10:26:15.955Z,99288.91
2023-05-05T10:30:24.719Z,99280.28
2023-05-05T10:34:32.253Z,99281.03
2023-05-05T10:38:35.057Z,99273.81
2023-05-05T10:42:38.691Z,99271.75
2023-05-05T10:46:44.221Z,99265.88
2023-05-05T10:50:51.818Z,99253.78
2023-05-05T10:55:02.353Z,99238.00
2023-05-05T10:59:05.038Z,99247.84
2023-05-05T11:03:34.012Z,99255.44
2023-05-05T11:07:37.221Z,99246.53
2023-05-05T11:12:02.971Z,99238.41
2023-05-05T11:16:06.248Z,99245.47
2023-05-05T11:20:11.553Z,99242.94
2023-05-05T11:24:29.190Z,99241.91
2023-05-05T11:28:32.471Z,99235.06
2023-05-05T11:32:35.959Z,99224.03
2023-05-05T11:36:41.669Z,99218.47
2023-05-05T11:40:46.457Z,99214.97
2023-05-05T11:44:49.267Z,99208.41
2023-05-05T11:48:52.974Z,99199.28
2023-05-05T11:52:57.076Z,99204.91
2023-05-05T11:57:02.074Z,99205.53
2023-05-05T12:01:07.019Z,99215.06
2023-05-05T12:05:10.224Z,99217.09
2023-05-05T12:09:17.238Z,99217.06
2023-05-05T12:13:20.561Z,99209.22
2023-05-05T12:17:24.346Z,99216.81
2023-05-05T12:21:27.048Z,99203.81
2023-05-05T12:25:38.162Z,99200.16
2023-05-05T12:29:43.738Z,99195.13
2023-05-05T12:33:46.737Z,99189.91
2023-05-05T12:37:49.396Z,99198.53
2023-05-05T12:41:53.309Z,99192.59
2023-05-05T12:46:08.033Z,99198.53
2023-05-05T12:50:11.409Z,99194.13
2023-05-05T12:54:14.123Z,99187.16
2023-05-05T12:58:18.760Z,99184.06
2023-05-05T13:02:22.109Z,99196.59
2023-05-05T13:06:27.219Z,99190.00
2023-05-05T13:10:31.282Z,99195.75
2023-05-05T13:14:36.395Z,99201.91
2023-05-05T13:18:45.531Z,99191.91
2023-05-05T13:22:48.285Z,99204.78
2023-05-05T13:26:51.351Z,99196.72
2023-05-05T13:30:56.039Z,99199.22
2023-05-05T13:34:59.149Z,99205.47
2023-05-05T13:39:02.069Z,99200.63
2023-05-05T13:43:04.896Z,99207.56
2023-05-05T13:47:09.698Z,99200.78
2023-05-05T13:51:12.644Z,99227.66
2023-05-05T13:55:15.554Z,99247.03
2023-05-05T13:59:18.273Z,99261.59
2023-05-05T14:03:23.822Z,99286.72
2023-05-05T14:07:26.591Z,99275.69
2023-05-05T14:11:29.425Z,99276.03
2023-05-05T14:15:32.118Z,99279.00
2023-05-05T14:19:36.427Z,99271.84
2023-05-05T14:23:39.211Z,99281.88
2023-05-05T14:27:41.956Z,99261.31
2023-05-05T14:31:44.606Z,99249.84
2023-05-05T14:35:49.034Z,99248.84
2023-05-05T14:39:52.051Z,99230.41
2023-05-05T14:43:54.996Z,99227.06
2023-05-05T14:47:58.691Z,99215.59
2023-05-05T14:52:03.290Z,99208.41
2023-05-05T14:56:06.821Z,99176.66
2023-05-05T15:00:10.995Z,99183.13
2023-05-05T15:04:13.854Z,99196.91
2023-05-05T15:08:19.280Z,99206.59
2023-05-05T15:12:22.079Z,99213.84
2023-05-05T15:16:24.850Z,99201.25
2023-05-05T15:20:28.591Z,99196.00
2023-05-05T15:24:32.792Z,99202.34
2023-05-05T15:28:35.754Z,99200.78
2023-05-05T15:32:38.621Z,99190.06
2023-05-05T15:36:41.361Z,99190.56
2023-05-05T15:40:48.325Z,99196.22
2023-05-05T15:44:53.162Z,99195.50
2023-05-05T15:48:55.641Z,99188.47
2023-05-05T15:52:59.086Z,99189.72
2023-05-05T15:57:03.263Z,99187.56
2023-05-05T16:01:06.224Z,99177.91
2023-05-05T16:05:10.007Z,99178.47
2023-05-05T16:09:13.040Z,99183.88
2023-05-05T16:13:17.360Z,99195.19
2023-05-05T16:17:21.707Z,99198.88
2023-05-05T16:21:25.717Z,99189.84
2023-05-05T16:25:29.723Z,99198.81
2023-05-05T16:29:33.824Z,99198.47
2023-05-05T16:33:40.723Z,99201.03
2023-05-05T16:37:43.388Z,99208.06
2023-05-05T16:41:46.143Z,99205.59
2023-05-05T16:45:50.311Z,99202.47
2023-05-05T16:49:53.371Z,99194.19
2023-05-05T16:53:56.492Z,99209.44
2023-05-05T16:57:59.018Z,99202.25
2023-05-05T17:02:03.336Z,99203.34
2023-05-05T17:06:06.839Z,99203.53
2023-05-05T17:10:11.210Z,99201.91
2023-05-05T17:14:14.327Z,99200.88
2023-05-05T17:18:20.277Z,99200.78
2023-05-05T17:22:22.986Z,99198.00
2023-05-05T17:26:25.783Z,99200.41
2023-05-05T17:30:28.718Z,99203.81
2023-05-05T17:34:32.904Z,99194.88
2023-05-05T17:38:35.598Z,99186.34
2023-05-05T17:42:38.986Z,99191.03
2023-05-05T17:46:42.954Z,99191.06
2023-05-05T17:50:48.135Z,99182.44
2023-05-05T17:54:51.634Z,99187.81
2023-05-05T17:58:54.918Z,99186.84
2023-05-05T18:02:57.699Z,99188.53
2023-05-05T18:07:01.922Z,99190.22
2023-05-05T18:11:04.606Z,99202.13
2023-05-05T18:15:09.144Z,99200.38
2023-05-05T18:19:12.053Z,99199.78
2023-05-05T18:23:16.388Z,99208.09
2023-05-05T18:27:19.300Z,99218.59
2023-05-05T18:31:25.169Z,99216.25
2023-05-05T18:35:28.520Z,99227.72
2023-05-05T18:39:32.451Z,99228.56
2023-05-05T18:43:35.104Z,99223.53
2023-05-05T18:47:38.948Z,99224.84
2023-05-05T18:51:41.738Z,99230.44
2023-05-05T18:55:47.026Z,99238.38
2023-05-05T18:59:50.522Z,99238.13
2023-05-05T19:03:53.248Z,99233.38
2023-05-05T19:07:55.909Z,99236.53
2023-05-05T19:12:00.407Z,99232.53
2023-05-05T19:16:03.495Z,99242.34
2023-05-05T19:20:07.648Z,99243.56
2023-05-05T19:24:10.993Z,99253.16
2023-05-05T19:28:15.167Z,99253.84
2023-05-05T19:32:18.116Z,99262.78
2023-05-05T19:36:20.996Z,99253.94
2023-05-05T19:40:24.053Z,99253.63
2023-05-05T19:44:28.092Z,99261.97
2023-05-05T19:48:31.472Z,99268.91
2023-05-05T19:52:36.533Z,99276.84
2023-05-05T19:56:39.568Z,99287.16
2023-05-05T20:00:43.840Z,99293.72
2023-05-05T20:04:46.542Z,99294.91
2023-05-05T20:08:49.265Z,99294.53
2023-05-05T20:12:52.723Z,99293.25
2023-05-05T20:16:56.963Z,99292.66
2023-05-05T20:21:02.448Z,99289.34
2023-05-05T20:25:05.642Z,99290.53
2023-05-05T20:29:08.689Z,99288.19
2023-05-05T20:33:12.913Z,99286.44
2023-05-05T20:37:15.802Z,99287.22
2023-05-05T20:41:18.501Z,99294.34
2023-05-05T20:45:21.479Z,99297.38
2023-05-05T20:49:25.719Z,99295.13
2023-05-05T20:53:28.389Z,99296.38
2023-05-05T20:57:31.095Z,99297.63
2023-05-05T21:01:34.570Z,99296.59
2023-05-05T21:05:39.934Z,99296.41
2023-05-05T21:09:42.813Z,99295.38
2023-05-05T21:13:45.473Z,99306.03
2023-05-05T21:17:48.309Z,99310.28
2023-05-05T21:21:53.737Z,99313.28
2023-05-05T21:25:56.576Z,99320.34
2023-05-05T21:29:59.279Z,99322.78
2023-05-05T21:34:02.628Z,99307.75
2023-05-05T21:38:06.965Z,99320.19
2023-05-05T21:42:09.646Z,99315.94
2023-05-05T21:46:12.941Z,99323.50
2023-05-05T21:50:15.856Z,99315.69
2023-05-05T21:54:20.342Z,99315.13
2023-05-05T21:58:24.672Z,99317.81
2023-05-05T22:02:27.761Z,99314.66
2023-05-05T22:06:30.685Z,99308.06
2023-05-05T22:10:35.099Z,99316.09
2023-05-05T22:14:38.209Z,99305.19
2023-05-05T22:18:41.291Z,99312.22
2023-05-05T22:22:44.377Z,99310.41
2023-05-05T22:26:48.684Z,99312.56
2023-05-05T22:30:51.619Z,99310.31
2023-05-05T22:34:54.490Z,99310.47
2023-05-05T22:38:57.221Z,99309.47
2023-05-05T22:43:01.755Z,99312.75
2023-05-05T22:47:04.780Z,99314.88
2023-05-05T22:51:08.008Z,99310.13
2023-05-05T22:55:12.744Z,99310.88
2023-05-05T22:59:17.125Z,99304.06
2023-05-05T23:03:20.149Z,99296.47
2023-05-05T23:07:22.882Z,99292.38
2023-05-05T23:11:26.963Z,99288.50
2023-05-05T23:15:31.202Z,99291.06
2023-05-05T23:19:34.806Z,99290.00
2023-05-05T23:23:37.497Z,99286.28
2023-05-05T23:27:41.295Z,99295.34
2023-05-05T23:31:46.262Z,99290.84
2023-05-05T23:35:49.014Z,99290.84
2023-05-05T23:39:51.930Z,99292.84
2023-05-05T23:43:54.904Z,99297.63
2023-05-05T23:47:59.234Z,99292.66
2023-05-05T23:52:01.968Z,99288.38
2023-05-05T23:56:04.852Z,99289.13
